createdAt,value
2019-06-26T00:00:18.706Z,10.20
2019-06-26T00:01:18.589Z,10.10
2019-06-26T00:02:18.564Z,10.20
2019-06-26T00:03:18.567Z,9.60
2019-06-26T00:04:18.542Z,10.00
2019-06-26T00:05:18.557Z,9.00
2019-06-26T00:06:18.537Z,9.60
2019-06-26T00:07:18.535Z,9.80
2019-06-26T00:08:18.529Z,10.10
2019-06-26T00:09:18.497Z,9.30
2019-06-26T00:10:18.516Z,9.60
2019-06-26T00:11:18.486Z,9.90
2019-06-26T00:12:18.490Z,10.30
2019-06-26T00:13:26.001Z,9.90
2019-06-26T00:14:18.433Z,9.90
2019-06-26T00:15:18.455Z,9.80
2019-06-26T00:16:18.428Z,9.90
2019-06-26T00:17:18.408Z,9.90
2019-06-26T00:18:18.406Z,10.00
2019-06-26T00:19:18.413Z,9.80
2019-06-26T00:20:18.435Z,10.10
2019-06-26T00:21:21.837Z,10.00
2019-06-26T00:22:18.411Z,10.00
2019-06-26T00:23:18.355Z,10.20
2019-06-26T00:24:18.327Z,10.20
2019-06-26T00:25:18.336Z,10.10
2019-06-26T00:26:18.315Z,9.80
2019-06-26T00:27:18.302Z,10.10
2019-06-26T00:28:18.290Z,10.40
2019-06-26T00:29:18.293Z,10.10
2019-06-26T00:30:18.288Z,10.60
2019-06-26T00:31:18.252Z,9.90
2019-06-26T00:32:18.258Z,10.10
2019-06-26T00:33:18.238Z,10.10
2019-06-26T00:34:18.226Z,10.70
2019-06-26T00:35:18.215Z,10.70
2019-06-26T00:36:18.209Z,10.10
2019-06-26T00:37:18.212Z,10.70
2019-06-26T00:38:18.180Z,11.10
2019-06-26T00:39:18.996Z,10.40
2019-06-26T00:40:18.271Z,10.80
2019-06-26T00:41:18.181Z,10.50
2019-06-26T00:42:18.132Z,9.90
2019-06-26T00:43:18.124Z,10.70
2019-06-26T00:44:18.121Z,9.80
2019-06-26T00:45:18.120Z,10.00
2019-06-26T00:46:18.115Z,10.80
2019-06-26T00:47:18.077Z,10.20
2019-06-26T00:48:18.067Z,10.40
2019-06-26T00:49:18.068Z,10.60
2019-06-26T00:50:18.051Z,10.80
2019-06-26T00:51:18.065Z,10.20
2019-06-26T00:52:18.033Z,10.60
2019-06-26T00:53:18.029Z,11.40
2019-06-26T00:54:18.000Z,10.40
2019-06-26T00:55:18.001Z,10.80
2019-06-26T00:56:17.999Z,10.10
2019-06-26T00:57:17.976Z,10.90
2019-06-26T00:58:17.958Z,10.90
2019-06-26T00:59:17.955Z,10.70
2019-06-26T01:00:17.941Z,10.80
2019-06-26T01:01:17.942Z,10.80
2019-06-26T01:03:27.435Z,10.10
2019-06-26T01:04:28.390Z,10.50
2019-06-26T01:05:28.368Z,10.80
2019-06-26T01:06:28.391Z,10.30
2019-06-26T01:07:28.348Z,10.40
2019-06-26T01:08:28.346Z,11.20
2019-06-26T01:09:28.333Z,11.10
2019-06-26T01:10:28.325Z,11.00
2019-06-26T01:11:28.362Z,10.90
2019-06-26T01:12:28.300Z,10.80
2019-06-26T01:13:28.312Z,10.40
2019-06-26T01:14:28.287Z,11.10
2019-06-26T01:15:28.262Z,10.40
2019-06-26T01:16:28.277Z,10.80
2019-06-26T01:17:28.247Z,11.10
2019-06-26T01:18:28.231Z,10.80
2019-06-26T01:19:28.220Z,10.50
2019-06-26T01:20:28.215Z,10.90
2019-06-26T01:21:28.229Z,11.50
2019-06-26T01:22:28.195Z,11.20
2019-06-26T01:23:28.200Z,11.30
2019-06-26T01:24:28.191Z,10.90
2019-06-26T01:25:28.153Z,11.50
2019-06-26T01:26:28.164Z,11.00
2019-06-26T01:27:28.148Z,11.40
2019-06-26T01:28:28.144Z,11.50
2019-06-26T01:29:28.122Z,11.60
2019-06-26T01:30:28.114Z,11.30
2019-06-26T01:31:28.118Z,12.20
2019-06-26T01:32:28.117Z,11.90
2019-06-26T01:33:28.080Z,12.10
2019-06-26T01:34:28.078Z,11.80
2019-06-26T01:35:28.078Z,12.10
2019-06-26T01:36:28.060Z,12.10
2019-06-26T01:37:28.030Z,11.70
2019-06-26T01:38:28.011Z,12.40
2019-06-26T01:39:28.004Z,11.60
2019-06-26T01:40:28.050Z,12.20
2019-06-26T01:41:28.004Z,12.20
2019-06-26T01:42:27.974Z,11.40
2019-06-26T01:43:27.968Z,11.90
2019-06-26T01:44:27.949Z,12.10
2019-06-26T01:45:27.943Z,12.00
2019-06-26T01:46:27.963Z,12.00
2019-06-26T01:47:27.918Z,13.40
2019-06-26T01:48:27.907Z,12.50
2019-06-26T01:49:27.899Z,13.10
2019-06-26T01:50:27.896Z,12.50
2019-06-26T01:51:27.907Z,13.60
2019-06-26T01:52:27.868Z,12.70
2019-06-26T01:53:27.892Z,12.70
2019-06-26T01:54:27.850Z,13.20
2019-06-26T01:55:27.843Z,13.60
2019-06-26T01:56:27.836Z,13.20
2019-06-26T01:57:27.809Z,12.20
2019-06-26T01:58:27.832Z,13.00
2019-06-26T01:59:27.814Z,13.50
2019-06-26T02:00:27.788Z,13.00
2019-06-26T02:01:27.784Z,13.50
2019-06-26T02:02:27.767Z,13.50
2019-06-26T02:03:27.759Z,12.80
2019-06-26T02:04:27.741Z,12.80
2019-06-26T02:05:27.731Z,12.50
2019-06-26T02:06:27.733Z,13.10
2019-06-26T02:07:27.704Z,12.30
2019-06-26T02:08:27.715Z,12.00
2019-06-26T02:09:27.689Z,14.20
2019-06-26T02:10:27.679Z,13.30
2019-06-26T02:11:27.692Z,13.60
2019-06-26T02:12:27.657Z,13.30
2019-06-26T02:13:27.641Z,14.80
2019-06-26T02:14:31.444Z,14.70
2019-06-26T02:15:27.633Z,13.10
2019-06-26T02:16:27.629Z,14.00
2019-06-26T02:17:27.645Z,13.60
2019-06-26T02:18:27.582Z,14.20
2019-06-26T02:19:27.566Z,13.50
2019-06-26T02:20:27.568Z,13.70
2019-06-26T02:21:27.591Z,14.40
2019-06-26T02:22:27.552Z,14.00
2019-06-26T02:23:27.536Z,15.10
2019-06-26T02:24:27.523Z,15.70
2019-06-26T02:25:27.517Z,16.30
2019-06-26T02:26:27.514Z,15.40
2019-06-26T02:27:27.536Z,15.80
2019-06-26T02:28:27.485Z,15.30
2019-06-26T02:29:27.506Z,15.30
2019-06-26T02:30:27.455Z,15.10
2019-06-26T02:31:27.684Z,15.90
2019-06-26T02:32:27.439Z,15.30
2019-06-26T02:33:27.426Z,16.10
2019-06-26T02:34:27.422Z,15.30
2019-06-26T02:35:27.405Z,16.10
2019-06-26T02:36:27.400Z,16.10
2019-06-26T02:37:27.403Z,16.90
2019-06-26T02:38:27.368Z,16.30
2019-06-26T02:39:27.366Z,17.50
2019-06-26T02:40:27.356Z,16.80
2019-06-26T02:41:27.344Z,15.90
2019-06-26T02:42:27.341Z,16.10
2019-06-26T02:43:27.323Z,16.90
2019-06-26T02:44:27.326Z,17.20
2019-06-26T02:45:27.300Z,17.60
2019-06-26T02:46:27.280Z,17.60
2019-06-26T02:47:27.284Z,17.10
2019-06-26T02:48:27.265Z,16.00
2019-06-26T02:49:27.253Z,17.10
2019-06-26T02:50:27.232Z,17.80
2019-06-26T02:51:27.226Z,18.40
2019-06-26T02:52:27.250Z,18.00
2019-06-26T02:53:27.211Z,17.70
2019-06-26T02:54:27.210Z,18.30
2019-06-26T02:55:27.188Z,16.40
2019-06-26T02:56:27.195Z,17.80
2019-06-26T02:57:27.181Z,18.90
2019-06-26T02:58:27.178Z,18.80
2019-06-26T02:59:27.133Z,18.70
2019-06-26T03:00:27.137Z,18.80
2019-06-26T03:01:27.128Z,19.10
2019-06-26T03:02:27.127Z,18.60
2019-06-26T03:04:36.284Z,18.20
2019-06-26T03:05:37.274Z,18.90
2019-06-26T03:06:37.262Z,19.20
2019-06-26T03:07:37.268Z,19.00
2019-06-26T03:08:37.240Z,19.30
2019-06-26T03:09:37.221Z,17.70
2019-06-26T03:10:37.224Z,19.70
2019-06-26T03:11:37.207Z,19.80
2019-06-26T03:12:37.216Z,21.10
2019-06-26T03:13:37.186Z,19.80
2019-06-26T03:14:37.172Z,20.40
2019-06-26T03:15:37.156Z,20.10
2019-06-26T03:16:37.149Z,18.30
2019-06-26T03:17:37.168Z,19.10
2019-06-26T03:18:37.137Z,19.50
2019-06-26T03:19:37.116Z,20.60
2019-06-26T03:20:37.111Z,19.20
2019-06-26T03:21:37.104Z,19.30
2019-06-26T03:22:37.120Z,20.30
2019-06-26T03:23:37.071Z,20.50
2019-06-26T03:24:37.073Z,18.70
2019-06-26T03:25:37.073Z,19.40
2019-06-26T03:26:37.055Z,19.50
2019-06-26T03:27:37.239Z,19.20
2019-06-26T03:28:37.050Z,19.30
2019-06-26T03:29:37.021Z,18.90
2019-06-26T03:30:37.010Z,19.80
2019-06-26T03:31:37.001Z,20.00
2019-06-26T03:32:36.997Z,20.10
2019-06-26T03:33:36.988Z,20.50
2019-06-26T03:34:37.161Z,19.40
2019-06-26T03:35:40.553Z,19.70
2019-06-26T03:36:36.935Z,19.50
2019-06-26T03:37:36.927Z,19.10
2019-06-26T03:38:36.938Z,19.90
2019-06-26T03:39:36.894Z,19.90
2019-06-26T03:40:36.910Z,21.10
2019-06-26T03:41:36.887Z,21.50
2019-06-26T03:42:36.868Z,21.60
2019-06-26T03:43:36.880Z,20.70
2019-06-26T03:44:36.858Z,22.00
2019-06-26T03:45:36.842Z,21.10
2019-06-26T03:46:36.822Z,21.50
2019-06-26T03:47:36.812Z,21.30
2019-06-26T03:48:36.812Z,20.90
2019-06-26T03:49:36.796Z,21.30
2019-06-26T03:50:36.774Z,23.80
2019-06-26T03:51:36.770Z,21.80
2019-06-26T03:52:36.769Z,24.10
2019-06-26T03:53:36.773Z,21.90
2019-06-26T03:54:36.739Z,23.20
2019-06-26T03:55:36.729Z,21.50
2019-06-26T03:56:36.713Z,23.20
2019-06-26T03:57:36.701Z,22.50
2019-06-26T03:58:36.716Z,22.60
2019-06-26T03:59:36.693Z,22.60
2019-06-26T04:00:36.676Z,25.20
2019-06-26T04:01:36.658Z,22.90
2019-06-26T04:02:36.681Z,23.00
2019-06-26T04:03:36.650Z,23.00
2019-06-26T04:04:36.628Z,23.20
2019-06-26T04:05:36.620Z,23.40
2019-06-26T04:06:36.602Z,24.60
2019-06-26T04:07:36.598Z,24.20
2019-06-26T04:08:36.610Z,23.90
2019-06-26T04:09:36.581Z,23.90
2019-06-26T04:10:36.559Z,24.10
2019-06-26T04:11:36.554Z,23.80
2019-06-26T04:12:36.550Z,23.80
2019-06-26T04:13:36.549Z,24.30
2019-06-26T04:14:36.520Z,23.80
2019-06-26T04:15:41.894Z,24.10
2019-06-26T04:16:36.489Z,23.50
2019-06-26T04:17:36.490Z,23.80
2019-06-26T04:18:36.597Z,25.30
2019-06-26T04:19:36.469Z,23.90
2019-06-26T04:20:36.479Z,22.90
2019-06-26T04:21:36.456Z,24.00
2019-06-26T04:22:36.445Z,23.40
2019-06-26T04:23:36.443Z,23.40
2019-06-26T04:24:36.419Z,23.80
2019-06-26T04:25:38.271Z,23.80
2019-06-26T04:26:36.393Z,24.90
2019-06-26T04:27:36.373Z,24.80
2019-06-26T04:28:36.415Z,23.40
2019-06-26T04:29:36.376Z,23.60
2019-06-26T04:30:36.352Z,24.00
2019-06-26T04:31:36.359Z,24.00
2019-06-26T04:32:36.411Z,23.70
2019-06-26T04:33:37.057Z,24.30
2019-06-26T04:34:36.563Z,24.90
2019-06-26T04:35:36.331Z,23.70
2019-06-26T04:36:37.043Z,23.90
2019-06-26T04:37:37.039Z,23.80
2019-06-26T04:38:37.040Z,23.80
2019-06-26T04:39:37.057Z,24.00
2019-06-26T04:40:36.313Z,24.10
2019-06-26T04:41:36.235Z,24.40
2019-06-26T04:42:36.213Z,25.10
2019-06-26T04:43:36.213Z,23.20
2019-06-26T04:44:36.211Z,23.40
2019-06-26T04:45:36.185Z,24.40
2019-06-26T04:46:36.178Z,23.80
2019-06-26T04:47:36.155Z,23.70
2019-06-26T04:48:36.155Z,24.10
2019-06-26T04:49:36.163Z,23.10
2019-06-26T04:50:36.131Z,23.50
2019-06-26T04:51:36.131Z,23.00
2019-06-26T04:52:36.105Z,24.60
2019-06-26T04:53:36.100Z,24.10
2019-06-26T04:54:36.117Z,23.50
2019-06-26T04:55:36.077Z,24.10
2019-06-26T04:56:36.076Z,25.60
2019-06-26T04:57:36.062Z,25.60
2019-06-26T04:58:36.044Z,24.70
2019-06-26T04:59:36.061Z,23.60
2019-06-26T05:00:36.033Z,25.50
2019-06-26T05:01:36.021Z,26.10
2019-06-26T05:02:36.025Z,25.00
2019-06-26T05:03:35.993Z,25.20
2019-06-26T05:05:45.182Z,23.30
2019-06-26T05:06:46.189Z,25.00
2019-06-26T05:07:46.150Z,25.70
2019-06-26T05:08:46.144Z,25.90
2019-06-26T05:09:46.150Z,24.90
2019-06-26T05:10:46.129Z,24.70
2019-06-26T05:11:46.107Z,24.70
2019-06-26T05:12:46.096Z,25.90
2019-06-26T05:13:46.098Z,26.40
2019-06-26T05:14:46.214Z,25.10
2019-06-26T05:15:46.082Z,26.50
2019-06-26T05:16:46.068Z,26.90
2019-06-26T05:17:46.040Z,26.10
2019-06-26T05:18:46.028Z,24.70
2019-06-26T05:19:46.029Z,25.50
2019-06-26T05:20:46.051Z,25.10
2019-06-26T05:21:46.006Z,26.70
2019-06-26T05:22:46.001Z,26.30
2019-06-26T05:23:45.996Z,27.40
2019-06-26T05:24:46.584Z,26.90
2019-06-26T05:25:45.983Z,28.10
2019-06-26T05:26:45.951Z,26.30
2019-06-26T05:27:45.930Z,26.60
2019-06-26T05:28:45.926Z,27.50
2019-06-26T05:29:45.955Z,26.40
2019-06-26T05:30:45.928Z,26.30
2019-06-26T05:31:45.902Z,27.50
2019-06-26T05:32:45.898Z,26.70
2019-06-26T05:33:45.870Z,27.40
2019-06-26T05:34:45.886Z,28.10
2019-06-26T05:35:45.896Z,28.50
2019-06-26T05:36:45.852Z,28.40
2019-06-26T05:37:45.889Z,25.70
2019-06-26T05:38:45.827Z,25.10
2019-06-26T05:39:45.819Z,24.70
2019-06-26T05:40:45.835Z,27.10
2019-06-26T05:41:45.868Z,27.20
2019-06-26T05:42:45.788Z,28.70
2019-06-26T05:43:45.861Z,27.50
2019-06-26T05:44:45.751Z,25.90
2019-06-26T05:45:45.774Z,28.50
2019-06-26T05:46:45.756Z,26.70
2019-06-26T05:47:45.730Z,26.80
2019-06-26T05:48:45.721Z,26.80
2019-06-26T05:49:45.702Z,24.50
2019-06-26T05:50:45.710Z,27.20
2019-06-26T05:51:45.701Z,27.10
2019-06-26T05:52:45.951Z,29.10
2019-06-26T05:53:45.655Z,29.60
2019-06-26T05:54:45.649Z,29.30
2019-06-26T05:55:45.764Z,29.10
2019-06-26T05:56:45.730Z,28.30
2019-06-26T05:57:48.441Z,29.60
2019-06-26T05:58:45.634Z,28.90
2019-06-26T05:59:45.619Z,29.70
2019-06-26T06:00:45.613Z,29.30
2019-06-26T06:01:46.027Z,29.00
2019-06-26T06:02:45.565Z,30.90
2019-06-26T06:03:45.562Z,29.70
2019-06-26T06:04:45.716Z,29.30
2019-06-26T06:05:45.551Z,30.20
2019-06-26T06:06:45.548Z,28.80
2019-06-26T06:07:45.675Z,30.40
2019-06-26T06:08:45.540Z,31.70
2019-06-26T06:09:45.498Z,31.10
2019-06-26T06:10:46.578Z,32.10
2019-06-26T06:11:45.559Z,31.60
2019-06-26T06:12:45.591Z,29.60
2019-06-26T06:13:45.445Z,31.60
2019-06-26T06:14:45.483Z,31.30
2019-06-26T06:15:45.432Z,29.50
2019-06-26T06:16:47.869Z,30.60
2019-06-26T06:17:45.921Z,30.30
2019-06-26T06:18:45.588Z,31.20
2019-06-26T06:19:45.755Z,30.30
2019-06-26T06:20:45.390Z,31.00
2019-06-26T06:21:45.394Z,29.20
2019-06-26T06:22:45.353Z,31.80
2019-06-26T06:23:45.379Z,31.60
2019-06-26T06:24:45.329Z,31.00
2019-06-26T06:25:45.333Z,30.30
2019-06-26T06:26:45.391Z,29.00
2019-06-26T06:27:47.977Z,30.80
2019-06-26T06:28:45.304Z,30.50
2019-06-26T06:29:45.282Z,30.00
2019-06-26T06:30:45.272Z,30.10
2019-06-26T06:31:45.499Z,30.30
2019-06-26T06:32:45.251Z,28.60
2019-06-26T06:33:45.242Z,28.00
2019-06-26T06:34:45.228Z,29.50
2019-06-26T06:35:45.216Z,28.80
2019-06-26T06:36:48.048Z,29.10
2019-06-26T06:37:46.496Z,29.10
2019-06-26T06:38:45.183Z,27.20
2019-06-26T06:39:45.185Z,28.40
2019-06-26T06:40:45.168Z,28.40
2019-06-26T06:41:45.160Z,25.30
2019-06-26T06:42:45.183Z,29.60
2019-06-26T06:43:45.143Z,28.90
2019-06-26T06:44:46.059Z,29.30
2019-06-26T06:45:45.987Z,27.10
2019-06-26T06:46:45.106Z,29.30
2019-06-26T06:47:45.160Z,28.50
2019-06-26T06:48:45.104Z,30.40
2019-06-26T06:49:45.077Z,30.70
2019-06-26T06:50:45.054Z,31.00
2019-06-26T06:51:45.056Z,32.80
2019-06-26T06:52:45.063Z,31.40
2019-06-26T06:53:45.049Z,30.10
2019-06-26T06:54:45.059Z,31.80
2019-06-26T06:55:45.045Z,31.20
2019-06-26T06:56:45.006Z,31.40
2019-06-26T06:57:45.034Z,31.20
2019-06-26T06:58:45.028Z,32.70
2019-06-26T06:59:44.964Z,30.30
2019-06-26T07:00:45.015Z,29.60
2019-06-26T07:01:44.948Z,29.10
2019-06-26T07:02:44.987Z,31.10
2019-06-26T07:03:44.921Z,30.60
2019-06-26T07:04:45.106Z,29.80
2019-06-26T07:06:54.428Z,29.00
2019-06-26T07:07:55.223Z,31.20
2019-06-26T07:08:55.121Z,33.10
2019-06-26T07:09:55.103Z,29.70
2019-06-26T07:10:55.093Z,30.30
2019-06-26T07:11:55.090Z,30.50
2019-06-26T07:12:55.133Z,30.50
2019-06-26T07:13:55.053Z,30.90
2019-06-26T07:14:55.058Z,29.40
2019-06-26T07:15:55.049Z,29.40
2019-06-26T07:16:55.037Z,29.10
2019-06-26T07:17:55.045Z,29.40
2019-06-26T07:18:55.001Z,29.20
2019-06-26T07:19:55.003Z,29.10
2019-06-26T07:20:55.004Z,26.20
2019-06-26T07:21:54.996Z,27.20
2019-06-26T07:22:54.994Z,28.30
2019-06-26T07:23:55.605Z,26.80
2019-06-26T07:24:54.962Z,23.50
2019-06-26T07:25:54.934Z,25.60
2019-06-26T07:26:54.975Z,23.50
2019-06-26T07:27:54.926Z,25.40
2019-06-26T07:28:54.913Z,25.60
2019-06-26T07:29:54.914Z,22.70
2019-06-26T07:30:54.890Z,23.30
2019-06-26T07:31:54.944Z,23.80
2019-06-26T07:32:54.868Z,24.20
2019-06-26T07:33:55.906Z,24.40
2019-06-26T07:34:54.863Z,25.10
2019-06-26T07:35:54.825Z,24.10
2019-06-26T07:36:54.815Z,22.80
2019-06-26T07:37:54.976Z,22.90
2019-06-26T07:38:54.838Z,21.70
2019-06-26T07:40:00.278Z,22.60
2019-06-26T07:40:54.765Z,18.90
2019-06-26T07:41:54.766Z,22.40
2019-06-26T07:42:54.767Z,21.70
2019-06-26T07:43:54.759Z,21.50
2019-06-26T07:44:54.934Z,19.10
2019-06-26T07:45:54.767Z,21.70
2019-06-26T07:46:54.713Z,20.50
2019-06-26T07:47:54.690Z,17.80
2019-06-26T07:48:57.519Z,21.00
2019-06-26T07:49:54.676Z,19.30
2019-06-26T07:50:54.658Z,17.70
2019-06-26T07:51:54.646Z,17.50
2019-06-26T07:52:54.649Z,19.20
2019-06-26T07:53:54.656Z,19.30
2019-06-26T07:54:54.636Z,19.30
2019-06-26T07:55:54.619Z,17.90
2019-06-26T07:56:54.595Z,19.90
2019-06-26T07:57:54.582Z,18.80
2019-06-26T07:58:54.601Z,18.30
2019-06-26T07:59:54.832Z,18.20
2019-06-26T08:00:54.546Z,19.30
2019-06-26T08:01:54.544Z,21.40
2019-06-26T08:02:54.539Z,19.10
2019-06-26T08:03:54.569Z,20.00
2019-06-26T08:04:54.516Z,19.00
2019-06-26T08:05:54.504Z,18.80
2019-06-26T08:06:54.494Z,22.80
2019-06-26T08:07:54.479Z,26.10
2019-06-26T08:08:54.553Z,22.00
2019-06-26T08:09:54.611Z,23.80
2019-06-26T08:10:54.504Z,24.80
2019-06-26T08:11:54.454Z,24.70
2019-06-26T08:12:54.426Z,23.30
2019-06-26T08:13:54.447Z,22.50
2019-06-26T08:14:54.408Z,21.70
2019-06-26T08:15:54.597Z,21.70
2019-06-26T08:16:54.400Z,22.70
2019-06-26T08:18:00.441Z,23.00
2019-06-26T08:18:54.424Z,20.90
2019-06-26T08:19:55.062Z,21.40
2019-06-26T08:21:11.087Z,20.60
2019-06-26T08:21:54.324Z,21.20
2019-06-26T08:22:54.561Z,22.70
2019-06-26T08:23:54.603Z,22.80
2019-06-26T08:24:54.565Z,20.40
2019-06-26T08:25:54.587Z,22.50
2019-06-26T08:26:54.291Z,20.70
2019-06-26T08:27:54.273Z,20.30
2019-06-26T08:28:54.356Z,19.90
2019-06-26T08:29:54.287Z,17.50
2019-06-26T08:30:54.479Z,17.60
2019-06-26T08:31:54.313Z,17.40
2019-06-26T08:32:54.220Z,18.00
2019-06-26T08:33:54.204Z,17.00
2019-06-26T08:34:54.222Z,16.10
2019-06-26T08:35:54.222Z,14.80
2019-06-26T08:36:54.169Z,16.30
2019-06-26T08:38:08.900Z,16.60
2019-06-26T08:38:55.192Z,16.20
2019-06-26T08:39:54.183Z,14.80
2019-06-26T08:40:54.203Z,18.00
2019-06-26T08:41:54.241Z,17.20
2019-06-26T08:42:54.123Z,16.70
2019-06-26T08:43:54.162Z,16.40
2019-06-26T08:44:54.113Z,16.80
2019-06-26T08:45:54.078Z,16.10
2019-06-26T08:46:54.063Z,15.70
2019-06-26T08:47:54.061Z,16.20
2019-06-26T08:48:54.066Z,18.90
2019-06-26T08:49:54.216Z,17.10
2019-06-26T08:50:54.033Z,15.90
2019-06-26T08:51:54.017Z,17.30
2019-06-26T08:52:54.009Z,15.60
2019-06-26T08:53:53.991Z,17.10
2019-06-26T08:54:54.007Z,15.10
2019-06-26T08:55:54.016Z,16.70
2019-06-26T08:56:54.009Z,16.80
2019-06-26T08:57:54.016Z,16.50
2019-06-26T08:58:53.965Z,14.30
2019-06-26T08:59:54.050Z,14.60
2019-06-26T09:00:53.906Z,13.10
2019-06-26T09:01:53.907Z,12.40
2019-06-26T09:02:54.022Z,13.10
2019-06-26T09:03:54.073Z,11.50
2019-06-26T09:04:54.037Z,12.80
2019-06-26T09:05:53.880Z,13.50
2019-06-26T09:08:03.482Z,10.50
2019-06-26T09:09:04.447Z,11.50
2019-06-26T09:10:04.413Z,11.20
2019-06-26T09:11:04.387Z,11.20
2019-06-26T09:12:05.310Z,11.70
2019-06-26T09:13:04.435Z,13.00
2019-06-26T09:14:04.355Z,12.00
2019-06-26T09:15:04.854Z,11.40
2019-06-26T09:16:04.333Z,12.40
2019-06-26T09:17:04.413Z,12.30
2019-06-26T09:18:04.406Z,12.40
2019-06-26T09:19:04.308Z,14.30
2019-06-26T09:20:04.543Z,15.70
2019-06-26T09:21:04.274Z,13.90
2019-06-26T09:22:04.262Z,15.10
2019-06-26T09:23:04.270Z,13.70
2019-06-26T09:24:04.334Z,14.70
2019-06-26T09:25:20.360Z,16.40
2019-06-26T09:26:04.245Z,17.20
2019-06-26T09:27:04.246Z,17.00
2019-06-26T09:28:04.223Z,15.90
2019-06-26T09:29:04.225Z,17.50
2019-06-26T09:30:04.482Z,16.40
2019-06-26T09:31:04.213Z,14.40
2019-06-26T09:32:04.300Z,14.70
2019-06-26T09:33:04.166Z,15.00
2019-06-26T09:34:04.361Z,16.30
2019-06-26T09:35:04.149Z,14.50
2019-06-26T09:36:06.872Z,12.40
2019-06-26T09:37:04.114Z,15.00
2019-06-26T09:38:04.091Z,13.70
2019-06-26T09:39:04.126Z,14.60
2019-06-26T09:40:04.114Z,16.40
2019-06-26T09:41:04.114Z,15.50
2019-06-26T09:42:04.071Z,13.90
2019-06-26T09:43:04.052Z,13.60
2019-06-26T09:44:04.042Z,12.30
2019-06-26T09:45:04.042Z,12.40
2019-06-26T09:46:04.028Z,12.40
2019-06-26T09:47:04.157Z,14.10
2019-06-26T09:48:04.177Z,14.00
2019-06-26T09:49:04.041Z,13.10
2019-06-26T09:50:03.976Z,11.60
2019-06-26T09:51:03.998Z,12.60
2019-06-26T09:52:03.950Z,11.60
2019-06-26T09:53:05.313Z,12.50
2019-06-26T09:54:03.943Z,11.60
2019-06-26T09:55:03.926Z,11.50
2019-06-26T09:56:03.926Z,11.60
2019-06-26T09:57:03.908Z,10.90
2019-06-26T09:58:03.900Z,10.70
2019-06-26T09:59:03.887Z,10.30
2019-06-26T10:00:03.911Z,9.20
2019-06-26T10:01:03.908Z,9.00
2019-06-26T10:02:03.858Z,8.70
2019-06-26T10:03:03.844Z,7.80
2019-06-26T10:04:03.832Z,8.40
2019-06-26T10:05:04.173Z,9.70
2019-06-26T10:06:03.820Z,8.90
2019-06-26T10:07:03.809Z,9.20
2019-06-26T10:08:03.779Z,8.40
2019-06-26T10:09:03.787Z,8.70
2019-06-26T10:10:03.772Z,8.10
2019-06-26T10:11:03.781Z,8.30
2019-06-26T10:12:03.743Z,8.30
2019-06-26T10:13:03.774Z,8.70
2019-06-26T10:14:03.733Z,8.70
2019-06-26T10:15:03.750Z,8.70
2019-06-26T10:16:03.757Z,8.30
2019-06-26T10:17:03.712Z,9.10
2019-06-26T10:18:04.411Z,8.20
2019-06-26T10:19:10.060Z,7.90
2019-06-26T10:20:03.740Z,7.80
2019-06-26T10:21:03.659Z,7.70
2019-06-26T10:22:03.666Z,7.30
2019-06-26T10:23:03.647Z,7.80
2019-06-26T10:24:03.628Z,7.70
2019-06-26T10:25:03.745Z,7.50
2019-06-26T10:26:03.598Z,7.40
2019-06-26T10:27:03.867Z,6.80
2019-06-26T10:28:03.584Z,6.80
2019-06-26T10:29:03.586Z,6.90
2019-06-26T10:30:03.563Z,7.20
2019-06-26T10:31:03.553Z,6.40
2019-06-26T10:32:03.550Z,6.90
2019-06-26T10:33:03.522Z,6.50
2019-06-26T10:34:03.525Z,6.20
2019-06-26T10:35:03.497Z,5.90
2019-06-26T10:36:03.489Z,6.30
2019-06-26T10:37:03.519Z,6.90
2019-06-26T10:38:03.489Z,7.30
2019-06-26T10:39:03.553Z,7.30
2019-06-26T10:40:03.451Z,6.70
2019-06-26T10:41:03.458Z,7.90
2019-06-26T10:42:04.625Z,7.00
2019-06-26T10:43:03.421Z,6.50
2019-06-26T10:44:03.419Z,6.90
2019-06-26T10:45:03.408Z,6.90
2019-06-26T10:46:03.408Z,6.90
2019-06-26T10:47:03.419Z,7.50
2019-06-26T10:48:03.393Z,7.40
2019-06-26T10:49:03.358Z,7.00
2019-06-26T10:50:03.388Z,7.30
2019-06-26T10:51:03.358Z,7.10
2019-06-26T10:52:03.418Z,7.50
2019-06-26T10:53:03.494Z,7.80
2019-06-26T10:54:03.350Z,7.70
2019-06-26T10:55:03.416Z,7.20
2019-06-26T10:56:03.296Z,7.20
2019-06-26T10:57:03.375Z,6.80
2019-06-26T10:58:03.277Z,7.60
2019-06-26T10:59:03.257Z,7.10
2019-06-26T11:00:03.269Z,6.50
2019-06-26T11:01:03.236Z,6.70
2019-06-26T11:02:03.236Z,6.70
2019-06-26T11:03:03.238Z,6.20
2019-06-26T11:04:03.221Z,6.20
2019-06-26T11:05:03.195Z,6.90
2019-06-26T11:06:03.310Z,7.00
2019-06-26T11:07:03.187Z,6.50
2019-06-26T11:09:12.381Z,6.90
2019-06-26T11:10:13.344Z,7.60
2019-06-26T11:11:13.333Z,9.20
2019-06-26T11:12:13.442Z,9.50
2019-06-26T11:13:13.373Z,9.70
2019-06-26T11:14:13.307Z,9.70
2019-06-26T11:15:13.297Z,9.80
2019-06-26T11:16:13.297Z,9.00
2019-06-26T11:17:13.279Z,8.80
2019-06-26T11:18:13.368Z,8.90
2019-06-26T11:19:13.258Z,8.50
2019-06-26T11:20:13.250Z,8.50
2019-06-26T11:21:13.236Z,8.80
2019-06-26T11:22:13.219Z,8.70
2019-06-26T11:23:13.233Z,8.50
2019-06-26T11:24:13.208Z,8.90
2019-06-26T11:25:13.192Z,9.40
2019-06-26T11:26:13.190Z,8.20
2019-06-26T11:27:13.169Z,7.70
2019-06-26T11:28:13.206Z,7.90
2019-06-26T11:29:13.156Z,7.90
2019-06-26T11:30:13.142Z,8.00
2019-06-26T11:31:13.181Z,9.00
2019-06-26T11:32:13.125Z,9.40
2019-06-26T11:33:13.133Z,9.20
2019-06-26T11:34:13.114Z,10.10
2019-06-26T11:35:13.153Z,10.20
2019-06-26T11:36:13.105Z,10.40
2019-06-26T11:37:13.084Z,11.00
2019-06-26T11:38:13.084Z,9.50
2019-06-26T11:39:13.062Z,10.10
2019-06-26T11:40:13.090Z,9.40
2019-06-26T11:41:13.463Z,9.20
2019-06-26T11:42:13.028Z,9.70
2019-06-26T11:43:13.034Z,9.70
2019-06-26T11:44:13.111Z,10.50
2019-06-26T11:45:13.011Z,10.30
2019-06-26T11:46:12.983Z,10.80
2019-06-26T11:47:12.998Z,11.00
2019-06-26T11:48:12.981Z,11.80
2019-06-26T11:49:12.945Z,11.40
2019-06-26T11:50:12.949Z,11.00
2019-06-26T11:51:12.939Z,11.50
2019-06-26T11:52:12.926Z,10.90
2019-06-26T11:53:12.936Z,10.70
2019-06-26T11:54:12.913Z,10.50
2019-06-26T11:55:12.893Z,11.30
2019-06-26T11:56:12.887Z,10.70
2019-06-26T11:57:12.903Z,10.90
2019-06-26T11:58:12.980Z,10.50
2019-06-26T11:59:12.854Z,10.90
2019-06-26T12:00:13.007Z,11.50
2019-06-26T12:01:12.827Z,10.90
2019-06-26T12:02:12.824Z,10.60
2019-06-26T12:03:13.406Z,10.90
2019-06-26T12:04:12.832Z,11.30
2019-06-26T12:05:12.792Z,11.40
2019-06-26T12:06:19.056Z,11.00
2019-06-26T12:07:12.772Z,10.10
2019-06-26T12:08:12.776Z,10.50
2019-06-26T12:09:12.771Z,11.10
2019-06-26T12:10:12.953Z,11.80
2019-06-26T12:11:12.734Z,11.40
2019-06-26T12:12:12.716Z,12.30
2019-06-26T12:13:12.707Z,11.80
2019-06-26T12:14:12.718Z,12.00
2019-06-26T12:15:12.690Z,11.60
2019-06-26T12:16:12.717Z,11.90
2019-06-26T12:17:12.669Z,10.90
2019-06-26T12:18:12.657Z,11.50
2019-06-26T12:19:12.667Z,11.30
2019-06-26T12:20:19.410Z,11.30
2019-06-26T12:21:12.624Z,11.30
2019-06-26T12:22:12.624Z,13.60
2019-06-26T12:23:12.596Z,11.30
2019-06-26T12:24:12.620Z,12.10
2019-06-26T12:25:12.580Z,15.60
2019-06-26T12:26:12.616Z,16.40
2019-06-26T12:27:12.555Z,16.10
2019-06-26T12:28:12.606Z,13.50
2019-06-26T12:29:12.554Z,15.40
2019-06-26T12:30:12.533Z,20.30
2019-06-26T12:31:12.594Z,18.80
2019-06-26T12:32:12.504Z,16.00
2019-06-26T12:33:12.499Z,16.10
2019-06-26T12:34:12.538Z,14.60
2019-06-26T12:35:12.474Z,16.30
2019-06-26T12:36:12.461Z,15.70
2019-06-26T12:37:12.459Z,14.10
2019-06-26T12:38:12.436Z,14.80
2019-06-26T12:39:12.463Z,13.80
2019-06-26T12:40:12.422Z,13.40
2019-06-26T12:41:12.419Z,14.40
2019-06-26T12:42:12.458Z,13.50
2019-06-26T12:43:12.394Z,15.00
2019-06-26T12:44:12.386Z,14.60
2019-06-26T12:45:12.393Z,13.10
2019-06-26T12:46:12.365Z,11.70
2019-06-26T12:47:12.361Z,13.70
2019-06-26T12:48:15.960Z,15.80
2019-06-26T12:49:12.338Z,14.80
2019-06-26T12:50:12.332Z,16.90
2019-06-26T12:51:12.317Z,17.20
2019-06-26T12:52:12.350Z,15.70
2019-06-26T12:53:13.144Z,15.50
2019-06-26T12:54:12.286Z,16.70
2019-06-26T12:55:12.281Z,15.40
2019-06-26T12:56:12.253Z,15.00
2019-06-26T12:57:12.246Z,15.60
2019-06-26T12:58:17.913Z,13.80
2019-06-26T12:59:12.221Z,12.90
2019-06-26T13:00:12.220Z,15.40
2019-06-26T13:01:12.189Z,16.20
2019-06-26T13:02:12.188Z,13.80
2019-06-26T13:03:12.170Z,15.30